createdAt,value
2019-02-18T00:00:32.721Z,19.43
2019-02-18T00:01:34.340Z,19.43
2019-02-18T00:02:35.449Z,19.42
2019-02-18T00:03:36.567Z,19.42
2019-02-18T00:04:37.790Z,19.42
2019-02-18T00:05:38.921Z,19.43
2019-02-18T00:06:40.033Z,19.38
2019-02-18T00:07:41.141Z,19.41
2019-02-18T00:08:42.256Z,19.40
2019-02-18T00:09:43.374Z,19.41
2019-02-18T00:10:44.500Z,19.41
2019-02-18T00:11:45.619Z,19.40
2019-02-18T00:12:46.730Z,19.41
2019-02-18T00:13:47.846Z,19.41
2019-02-18T00:14:48.965Z,19.40
2019-02-18T00:15:50.205Z,19.41
2019-02-18T00:16:51.633Z,19.41
2019-02-18T00:17:52.737Z,19.40
2019-02-18T00:18:53.856Z,19.42
2019-02-18T00:19:54.976Z,19.41
2019-02-18T00:20:56.109Z,19.41
2019-02-18T00:21:57.225Z,19.41
2019-02-18T00:22:58.441Z,19.41
2019-02-18T00:23:59.555Z,19.41
2019-02-18T00:25:00.679Z,19.41
2019-02-18T00:26:01.805Z,19.43
2019-02-18T00:27:02.918Z,19.42
2019-02-18T00:28:04.140Z,19.41
2019-02-18T00:29:05.251Z,19.42
2019-02-18T00:30:07.484Z,19.41
2019-02-18T00:31:08.741Z,19.42
2019-02-18T00:32:09.860Z,19.42
2019-02-18T00:33:11.095Z,19.43
2019-02-18T00:34:12.321Z,19.42
2019-02-18T00:35:13.437Z,19.41
2019-02-18T00:36:14.751Z,19.41
2019-02-18T00:37:24.181Z,19.41
2019-02-18T00:38:18.985Z,19.41
2019-02-18T00:39:20.100Z,19.40
2019-02-18T00:40:21.318Z,19.40
2019-02-18T00:41:22.580Z,19.38
2019-02-18T00:42:23.796Z,19.38
2019-02-18T00:43:24.914Z,19.38
2019-02-18T00:44:26.133Z,19.37
2019-02-18T00:45:27.246Z,19.36
2019-02-18T00:46:28.374Z,19.35
2019-02-18T00:47:30.026Z,19.35
2019-02-18T00:48:31.241Z,19.33
2019-02-18T00:49:32.355Z,19.32
2019-02-18T00:50:33.577Z,19.32
2019-02-18T00:51:34.713Z,19.31
2019-02-18T00:52:35.825Z,19.31
2019-02-18T00:53:37.041Z,19.29
2019-02-18T00:54:38.156Z,19.30
2019-02-18T00:55:39.378Z,19.29
2019-02-18T00:56:40.505Z,19.29
2019-02-18T00:57:41.625Z,19.29
2019-02-18T00:58:43.782Z,19.29
2019-02-18T00:59:45.072Z,19.29
2019-02-18T01:00:46.182Z,19.28
2019-02-18T01:01:47.317Z,19.28
2019-02-18T01:02:48.473Z,19.28
2019-02-18T01:03:49.587Z,19.27
2019-02-18T01:04:50.701Z,19.28
2019-02-18T01:05:51.921Z,19.27
2019-02-18T01:06:53.177Z,19.28
2019-02-18T01:07:54.296Z,19.27
2019-02-18T01:08:55.408Z,19.26
2019-02-18T01:09:56.629Z,19.27
2019-02-18T01:10:57.845Z,19.27
2019-02-18T01:11:58.978Z,19.27
2019-02-18T01:13:00.090Z,19.27
2019-02-18T01:14:01.305Z,19.27
2019-02-18T01:15:04.322Z,19.28
2019-02-18T01:16:05.435Z,19.27
2019-02-18T01:17:06.563Z,19.28
2019-02-18T01:18:07.671Z,19.27
2019-02-18T01:19:08.784Z,19.28
2019-02-18T01:20:11.701Z,19.28
2019-02-18T01:21:12.918Z,19.28
2019-02-18T01:22:14.065Z,19.29
2019-02-18T01:23:15.173Z,19.29
2019-02-18T01:24:16.299Z,19.29
2019-02-18T01:25:17.407Z,19.29
2019-02-18T01:26:18.617Z,19.29
2019-02-18T01:27:19.751Z,19.31
2019-02-18T01:28:20.865Z,19.31
2019-02-18T01:29:22.077Z,19.31
2019-02-18T01:30:23.196Z,19.31
2019-02-18T01:31:24.314Z,19.32
2019-02-18T01:32:25.444Z,19.31
2019-02-18T01:33:26.592Z,19.31
2019-02-18T01:34:27.694Z,19.32
2019-02-18T01:35:28.809Z,19.31
2019-02-18T01:36:30.044Z,19.32
2019-02-18T01:37:31.175Z,19.31
2019-02-18T01:38:32.288Z,19.30
2019-02-18T01:39:33.407Z,19.30
2019-02-18T01:40:34.630Z,19.31
2019-02-18T01:41:35.858Z,19.30
2019-02-18T01:42:36.988Z,19.29
2019-02-18T01:43:38.102Z,19.29
2019-02-18T01:44:39.221Z,19.28
2019-02-18T01:45:40.438Z,19.28
2019-02-18T01:46:41.550Z,19.27
2019-02-18T01:47:42.670Z,19.27
2019-02-18T01:48:43.896Z,19.26
2019-02-18T01:49:45.014Z,19.26
2019-02-18T01:50:46.128Z,19.25
2019-02-18T01:51:47.355Z,19.24
2019-02-18T01:52:48.481Z,19.24
2019-02-18T01:53:49.601Z,19.23
2019-02-18T01:54:50.714Z,19.22
2019-02-18T01:55:51.828Z,19.21
2019-02-18T01:56:52.947Z,19.21
2019-02-18T01:57:54.076Z,19.19
2019-02-18T01:58:55.195Z,19.20
2019-02-18T01:59:56.436Z,19.19
2019-02-18T02:00:57.552Z,19.18
2019-02-18T02:01:58.668Z,19.18
2019-02-18T02:02:59.801Z,19.18
2019-02-18T02:04:01.022Z,19.18
2019-02-18T02:05:03.533Z,19.18
2019-02-18T02:06:04.654Z,19.17
2019-02-18T02:07:05.868Z,19.17
2019-02-18T02:08:07.091Z,19.18
2019-02-18T02:09:10.007Z,19.17
2019-02-18T02:10:13.129Z,19.17
2019-02-18T02:11:14.249Z,19.17
2019-02-18T02:12:15.358Z,19.17
2019-02-18T02:13:25.281Z,19.18
2019-02-18T02:14:26.506Z,19.17
2019-02-18T02:15:27.622Z,19.17
2019-02-18T02:16:28.732Z,19.17
2019-02-18T02:17:29.847Z,19.17
2019-02-18T02:18:30.980Z,19.16
2019-02-18T02:19:32.113Z,19.16
2019-02-18T02:20:33.629Z,19.17
2019-02-18T02:21:34.741Z,19.17
2019-02-18T02:22:35.962Z,19.17
2019-02-18T02:23:37.196Z,19.17
2019-02-18T02:24:38.413Z,19.17
2019-02-18T02:25:39.524Z,19.17
2019-02-18T02:26:40.652Z,19.18
2019-02-18T02:27:41.787Z,19.18
2019-02-18T02:28:42.940Z,19.18
2019-02-18T02:29:44.058Z,19.20
2019-02-18T02:30:45.271Z,19.19
2019-02-18T02:31:46.378Z,19.19
2019-02-18T02:32:47.495Z,19.21
2019-02-18T02:33:48.640Z,19.20
2019-02-18T02:34:49.758Z,19.20
2019-02-18T02:35:50.874Z,19.21
2019-02-18T02:36:52.082Z,19.22
2019-02-18T02:37:53.197Z,19.21
2019-02-18T02:38:54.356Z,19.20
2019-02-18T02:39:55.504Z,19.21
2019-02-18T02:40:56.590Z,19.22
2019-02-18T02:41:57.708Z,19.21
2019-02-18T02:42:58.930Z,19.21
2019-02-18T02:44:00.053Z,19.20
2019-02-18T02:45:01.167Z,19.20
2019-02-18T02:46:02.286Z,19.19
2019-02-18T02:47:03.400Z,19.18
2019-02-18T02:48:04.511Z,19.18
2019-02-18T02:49:05.636Z,19.17
2019-02-18T02:50:07.258Z,19.17
2019-02-18T02:51:08.374Z,19.17
2019-02-18T02:52:09.499Z,19.16
2019-02-18T02:53:10.714Z,19.14
2019-02-18T02:54:11.978Z,19.15
2019-02-18T02:55:13.192Z,19.15
2019-02-18T02:56:14.802Z,19.13
2019-02-18T02:57:15.913Z,19.13
2019-02-18T02:58:17.127Z,19.13
2019-02-18T02:59:18.360Z,19.12
2019-02-18T03:00:19.484Z,19.12
2019-02-18T03:01:20.697Z,19.11
2019-02-18T03:02:21.808Z,19.10
2019-02-18T03:03:22.923Z,19.11
2019-02-18T03:04:24.062Z,19.11
2019-02-18T03:05:25.164Z,19.11
2019-02-18T03:06:26.282Z,19.11
2019-02-18T03:07:27.498Z,19.10
2019-02-18T03:08:28.616Z,19.11
2019-02-18T03:09:29.869Z,19.11
2019-02-18T03:10:30.985Z,19.11
2019-02-18T03:11:32.105Z,19.11
2019-02-18T03:12:33.222Z,19.10
2019-02-18T03:13:34.343Z,19.11
2019-02-18T03:14:35.477Z,19.11
2019-02-18T03:15:36.595Z,19.11
2019-02-18T03:16:37.812Z,19.11
2019-02-18T03:17:38.925Z,19.10
2019-02-18T03:18:40.136Z,19.12
2019-02-18T03:19:41.293Z,19.10
2019-02-18T03:20:42.401Z,19.10
2019-02-18T03:21:43.506Z,19.11
2019-02-18T03:22:44.722Z,19.12
2019-02-18T03:23:45.832Z,19.11
2019-02-18T03:25:18.818Z,19.11
2019-02-18T03:26:19.928Z,19.11
2019-02-18T03:27:21.617Z,19.12
2019-02-18T03:28:28.966Z,19.09
2019-02-18T03:29:42.789Z,19.08
2019-02-18T03:30:50.252Z,19.08
2019-02-18T03:31:51.364Z,19.07
2019-02-18T03:32:52.554Z,19.07
2019-02-18T03:34:03.099Z,19.09
2019-02-18T03:35:04.409Z,19.08
2019-02-18T03:36:05.543Z,19.07
2019-02-18T03:37:06.945Z,19.08
2019-02-18T03:38:08.060Z,19.07
2019-02-18T03:39:09.182Z,19.07
2019-02-18T03:40:10.294Z,19.08
2019-02-18T03:41:11.424Z,19.07
2019-02-18T03:42:12.643Z,19.07
2019-02-18T03:43:13.751Z,19.08
2019-02-18T03:44:14.866Z,19.08
2019-02-18T03:45:15.986Z,19.08
2019-02-18T03:46:17.113Z,19.08
2019-02-18T03:47:18.342Z,19.09
2019-02-18T03:48:19.570Z,19.07
2019-02-18T03:49:20.681Z,19.08
2019-02-18T03:50:21.794Z,19.08
2019-02-18T03:51:22.925Z,19.08
2019-02-18T03:52:24.039Z,19.06
2019-02-18T03:53:25.155Z,19.06
2019-02-18T03:54:29.423Z,19.07
2019-02-18T03:55:30.536Z,19.06
2019-02-18T03:56:31.663Z,19.06
2019-02-18T03:57:32.868Z,19.04
2019-02-18T03:58:34.374Z,19.04
2019-02-18T03:59:35.597Z,19.03
2019-02-18T04:00:36.711Z,19.03
2019-02-18T04:01:38.129Z,19.02
2019-02-18T04:02:39.241Z,19.01
2019-02-18T04:03:40.361Z,19.02
2019-02-18T04:04:41.580Z,19.02
2019-02-18T04:05:42.693Z,19.01
2019-02-18T04:06:43.814Z,19.01
2019-02-18T04:07:44.931Z,19.01
2019-02-18T04:08:46.047Z,19.01
2019-02-18T04:09:47.269Z,19.00
2019-02-18T04:10:48.388Z,19.00
2019-02-18T04:11:49.654Z,19.00
2019-02-18T04:12:50.775Z,19.01
2019-02-18T04:13:51.889Z,19.00
2019-02-18T04:14:53.006Z,19.00
2019-02-18T04:15:54.126Z,19.01
2019-02-18T04:16:55.252Z,19.01
2019-02-18T04:17:56.369Z,19.02
2019-02-18T04:18:57.484Z,19.01
2019-02-18T04:19:58.710Z,19.02
2019-02-18T04:20:59.828Z,19.02
2019-02-18T04:22:01.135Z,19.02
2019-02-18T04:23:02.236Z,19.03
2019-02-18T04:24:03.355Z,19.03
2019-02-18T04:25:05.969Z,19.03
2019-02-18T04:26:07.093Z,19.02
2019-02-18T04:27:08.238Z,19.03
2019-02-18T04:28:09.364Z,19.03
2019-02-18T04:29:10.763Z,19.03
2019-02-18T04:30:13.707Z,19.02
2019-02-18T04:31:14.991Z,19.03
2019-02-18T04:32:16.133Z,19.03
2019-02-18T04:33:17.248Z,19.04
2019-02-18T04:34:18.377Z,19.04
2019-02-18T04:35:19.500Z,19.04
2019-02-18T04:36:20.608Z,19.04
2019-02-18T04:37:21.736Z,19.05
2019-02-18T04:38:22.856Z,19.06
2019-02-18T04:39:23.972Z,19.07
2019-02-18T04:40:25.095Z,19.06
2019-02-18T04:41:26.210Z,19.05
2019-02-18T04:42:27.490Z,19.07
2019-02-18T04:43:28.601Z,19.06
2019-02-18T04:44:29.717Z,19.07
2019-02-18T04:45:30.833Z,19.07
2019-02-18T04:46:31.962Z,19.07
2019-02-18T04:47:33.070Z,19.06
2019-02-18T04:48:34.292Z,19.07
2019-02-18T04:49:35.412Z,19.08
2019-02-18T04:50:36.528Z,19.07
2019-02-18T04:51:37.649Z,19.09
2019-02-18T04:52:38.882Z,19.09
2019-02-18T04:53:39.996Z,19.08
2019-02-18T04:54:41.216Z,19.08
2019-02-18T04:55:42.333Z,19.09
2019-02-18T04:56:43.555Z,19.09
2019-02-18T04:57:44.685Z,19.10
2019-02-18T04:58:45.809Z,19.11
2019-02-18T04:59:46.936Z,19.11
2019-02-18T05:00:48.159Z,19.11
2019-02-18T05:01:49.271Z,19.12
2019-02-18T05:02:50.500Z,19.12
2019-02-18T05:03:51.615Z,19.11
2019-02-18T05:04:52.739Z,19.11
2019-02-18T05:05:53.850Z,19.12
2019-02-18T05:06:54.972Z,19.11
2019-02-18T05:07:56.227Z,19.11
2019-02-18T05:09:05.041Z,19.10
2019-02-18T05:10:00.436Z,19.08
2019-02-18T05:11:01.691Z,19.08
2019-02-18T05:12:02.813Z,19.07
2019-02-18T05:13:03.960Z,19.06
2019-02-18T05:14:05.092Z,19.05
2019-02-18T05:15:07.791Z,19.04
2019-02-18T05:16:08.928Z,19.02
2019-02-18T05:17:10.131Z,19.03
2019-02-18T05:18:11.299Z,19.01
2019-02-18T05:19:12.557Z,19.01
2019-02-18T05:20:13.664Z,19.00
2019-02-18T05:21:14.778Z,18.99
2019-02-18T05:22:15.891Z,18.99
2019-02-18T05:23:17.123Z,18.99
2019-02-18T05:24:18.246Z,18.98
2019-02-18T05:25:19.384Z,18.98
2019-02-18T05:26:20.606Z,18.98
2019-02-18T05:27:32.816Z,18.98
2019-02-18T05:28:24.768Z,18.97
2019-02-18T05:29:25.994Z,18.98
2019-02-18T05:30:29.430Z,18.97
2019-02-18T05:31:30.294Z,18.97
2019-02-18T05:32:31.393Z,18.97
2019-02-18T05:33:32.659Z,18.97
2019-02-18T05:34:33.793Z,18.96
2019-02-18T05:35:34.910Z,18.96
2019-02-18T05:36:36.021Z,18.97
2019-02-18T05:37:37.144Z,18.96
2019-02-18T05:38:38.410Z,18.96
2019-02-18T05:39:39.629Z,18.97
2019-02-18T05:40:40.740Z,18.98
2019-02-18T05:41:41.861Z,18.97
2019-02-18T05:42:42.972Z,18.96
2019-02-18T05:43:44.100Z,18.98
2019-02-18T05:44:45.216Z,18.98
2019-02-18T05:45:46.328Z,18.99
2019-02-18T05:46:47.445Z,18.99
2019-02-18T05:47:48.582Z,18.98
2019-02-18T05:48:49.792Z,18.99
2019-02-18T05:49:50.912Z,19.00
2019-02-18T05:50:52.028Z,19.00
2019-02-18T05:51:53.153Z,19.00
2019-02-18T05:52:54.264Z,18.99
2019-02-18T05:53:55.420Z,18.99
2019-02-18T05:54:56.532Z,18.99
2019-02-18T05:55:57.655Z,18.98
2019-02-18T05:56:58.765Z,18.98
2019-02-18T05:57:59.878Z,18.97
2019-02-18T05:59:01.032Z,18.97
2019-02-18T06:00:03.364Z,18.96
2019-02-18T06:01:04.476Z,18.95
2019-02-18T06:02:05.593Z,18.96
2019-02-18T06:03:06.708Z,18.95
2019-02-18T06:04:07.878Z,18.94
2019-02-18T06:05:08.957Z,18.95
2019-02-18T06:06:10.178Z,18.96
2019-02-18T06:07:11.294Z,18.95
2019-02-18T06:08:12.509Z,18.97
2019-02-18T06:09:13.772Z,18.98
2019-02-18T06:10:16.973Z,18.99
2019-02-18T06:11:18.036Z,19.00
2019-02-18T06:12:19.234Z,19.03
2019-02-18T06:13:20.408Z,19.06
2019-02-18T06:14:21.522Z,19.10
2019-02-18T06:15:22.634Z,19.14
2019-02-18T06:16:23.750Z,19.19
2019-02-18T06:17:24.868Z,19.22
2019-02-18T06:18:25.984Z,19.28
2019-02-18T06:19:27.118Z,19.34
2019-02-18T06:20:28.242Z,19.38
2019-02-18T06:21:29.457Z,19.44
2019-02-18T06:22:30.573Z,19.49
2019-02-18T06:23:31.692Z,19.55
2019-02-18T06:24:32.825Z,19.59
2019-02-18T06:25:33.944Z,19.65
2019-02-18T06:26:35.057Z,19.71
2019-02-18T06:27:36.179Z,19.77
2019-02-18T06:28:37.294Z,19.84
2019-02-18T06:29:38.446Z,19.90
2019-02-18T06:30:39.560Z,19.96
2019-02-18T06:31:40.671Z,20.02
2019-02-18T06:32:41.795Z,20.09
2019-02-18T06:33:43.185Z,20.14
2019-02-18T06:34:44.320Z,20.21
2019-02-18T06:35:45.442Z,20.26
2019-02-18T06:36:46.559Z,20.32
2019-02-18T06:37:47.672Z,20.37
2019-02-18T06:38:48.788Z,20.42
2019-02-18T06:39:49.918Z,20.46
2019-02-18T06:40:51.043Z,20.51
2019-02-18T06:41:52.146Z,20.56
2019-02-18T06:42:53.260Z,20.61
2019-02-18T06:43:54.478Z,20.66
2019-02-18T06:44:57.541Z,20.69
2019-02-18T06:46:06.421Z,20.75
2019-02-18T06:47:08.332Z,20.78
2019-02-18T06:48:11.354Z,20.83
2019-02-18T06:49:14.378Z,20.85
2019-02-18T06:50:15.509Z,20.89
2019-02-18T06:51:17.214Z,20.92
2019-02-18T06:52:18.452Z,20.94
2019-02-18T06:53:19.569Z,20.97
2019-02-18T06:54:20.881Z,20.99
2019-02-18T06:55:22.117Z,21.02
2019-02-18T06:56:25.136Z,21.04
2019-02-18T06:57:31.026Z,21.05
2019-02-18T06:58:34.046Z,21.06
2019-02-18T06:59:37.088Z,21.06
2019-02-18T07:00:40.121Z,21.07
2019-02-18T07:01:48.931Z,21.07
2019-02-18T07:02:51.955Z,21.07
2019-02-18T07:03:54.968Z,21.06
2019-02-18T07:05:00.746Z,21.06
2019-02-18T07:06:18.624Z,21.05
2019-02-18T07:07:24.208Z,21.06
2019-02-18T07:08:27.234Z,21.05
2019-02-18T07:09:30.252Z,21.04
2019-02-18T07:10:33.293Z,21.04
2019-02-18T07:11:39.129Z,21.04
2019-02-18T07:12:42.144Z,21.04
2019-02-18T07:13:43.360Z,21.04
2019-02-18T07:14:44.598Z,21.04
2019-02-18T07:15:45.718Z,21.06
2019-02-18T07:16:46.847Z,21.05
2019-02-18T07:17:47.965Z,21.06
2019-02-18T07:18:49.086Z,21.07
2019-02-18T07:19:50.206Z,21.07
2019-02-18T07:20:51.316Z,21.08
2019-02-18T07:21:52.446Z,21.09
2019-02-18T07:22:53.564Z,21.09
2019-02-18T07:23:54.681Z,21.10
2019-02-18T07:24:55.905Z,21.09
2019-02-18T07:25:57.017Z,21.12
2019-02-18T07:26:58.268Z,21.11
2019-02-18T07:27:59.387Z,21.12
2019-02-18T07:29:00.505Z,21.12
2019-02-18T07:30:01.735Z,21.13
2019-02-18T07:31:02.940Z,21.15
2019-02-18T07:32:04.097Z,21.15
2019-02-18T07:33:05.214Z,21.15
2019-02-18T07:34:06.436Z,21.15
2019-02-18T07:35:07.562Z,21.17
2019-02-18T07:36:08.776Z,21.18
2019-02-18T07:37:09.929Z,21.18
2019-02-18T07:38:11.049Z,21.19
2019-02-18T07:39:12.161Z,21.20
2019-02-18T07:40:13.274Z,21.21
2019-02-18T07:41:14.399Z,21.21
2019-02-18T07:42:15.550Z,21.23
2019-02-18T07:43:16.768Z,21.25
2019-02-18T07:44:17.884Z,21.26
2019-02-18T07:45:19.043Z,21.26
2019-02-18T07:46:20.116Z,21.27
2019-02-18T07:47:21.247Z,21.27
2019-02-18T07:48:22.376Z,21.29
2019-02-18T07:49:23.492Z,21.28
2019-02-18T07:50:24.714Z,21.30
2019-02-18T07:51:25.933Z,21.32
2019-02-18T07:52:27.164Z,21.32
2019-02-18T07:53:28.384Z,21.33
2019-02-18T07:54:29.496Z,21.35
2019-02-18T07:55:30.608Z,21.34
2019-02-18T07:56:31.725Z,21.34
2019-02-18T07:57:32.961Z,21.35
2019-02-18T07:58:34.181Z,21.34
2019-02-18T07:59:35.296Z,21.35
2019-02-18T08:00:36.424Z,21.35
2019-02-18T08:01:37.547Z,21.34
2019-02-18T08:02:38.680Z,21.34
2019-02-18T08:03:39.802Z,21.35
2019-02-18T08:04:40.917Z,21.33
2019-02-18T08:05:42.036Z,21.33
2019-02-18T08:06:43.408Z,21.34
2019-02-18T08:07:44.536Z,21.33
2019-02-18T08:08:45.661Z,21.32
2019-02-18T08:09:46.774Z,21.32
2019-02-18T08:10:47.959Z,21.31
2019-02-18T08:11:49.186Z,21.30
2019-02-18T08:12:50.309Z,21.29
2019-02-18T08:13:51.428Z,21.29
2019-02-18T08:14:52.542Z,21.30
2019-02-18T08:15:53.760Z,21.31
2019-02-18T08:16:54.877Z,21.31
2019-02-18T08:17:56.033Z,21.31
2019-02-18T08:18:57.154Z,21.33
2019-02-18T08:19:58.372Z,21.32
2019-02-18T08:20:59.490Z,21.34
2019-02-18T08:22:00.608Z,21.34
2019-02-18T08:23:01.737Z,21.35
2019-02-18T08:24:03.055Z,21.36
2019-02-18T08:25:07.477Z,21.37
2019-02-18T08:26:08.687Z,21.38
2019-02-18T08:27:09.804Z,21.39
2019-02-18T08:28:10.937Z,21.39
2019-02-18T08:29:12.054Z,21.40
2019-02-18T08:30:13.769Z,21.41
2019-02-18T08:31:14.988Z,21.41
2019-02-18T08:32:16.108Z,21.42
2019-02-18T08:33:17.238Z,21.43
2019-02-18T08:34:18.358Z,21.44
2019-02-18T08:35:19.587Z,21.45
2019-02-18T08:36:20.703Z,21.45
2019-02-18T08:37:21.818Z,21.46
2019-02-18T08:38:22.972Z,21.48
2019-02-18T08:39:24.089Z,21.48
2019-02-18T08:40:25.317Z,21.48
2019-02-18T08:41:26.429Z,21.48
2019-02-18T08:42:27.546Z,21.49
2019-02-18T08:43:28.682Z,21.49
2019-02-18T08:44:29.904Z,21.49
2019-02-18T08:45:31.018Z,21.50
2019-02-18T08:46:32.134Z,21.50
2019-02-18T08:47:33.250Z,21.51
2019-02-18T08:48:34.382Z,21.50
2019-02-18T08:49:35.605Z,21.51
2019-02-18T08:50:36.722Z,21.52
2019-02-18T08:51:37.945Z,21.52
2019-02-18T08:52:39.066Z,21.53
2019-02-18T08:53:40.198Z,21.52
2019-02-18T08:54:41.315Z,21.52
2019-02-18T08:55:42.430Z,21.52
2019-02-18T08:56:43.551Z,21.52
2019-02-18T08:57:44.779Z,21.52
2019-02-18T08:58:45.933Z,21.52
2019-02-18T08:59:47.049Z,21.52
2019-02-18T09:00:48.175Z,21.52
2019-02-18T09:01:49.288Z,21.53
2019-02-18T09:02:50.403Z,21.52
2019-02-18T09:03:51.535Z,21.52
2019-02-18T09:04:52.754Z,21.53
2019-02-18T09:05:53.871Z,21.52
2019-02-18T09:06:55.000Z,21.52
2019-02-18T09:07:56.117Z,21.52
2019-02-18T09:08:57.778Z,21.51
2019-02-18T09:09:58.884Z,21.51
2019-02-18T09:10:59.999Z,21.50
2019-02-18T09:12:01.115Z,21.50
2019-02-18T09:13:02.233Z,21.49
2019-02-18T09:14:03.366Z,21.47
2019-02-18T09:15:06.485Z,21.46
2019-02-18T09:16:07.612Z,21.45
2019-02-18T09:17:08.719Z,21.44
2019-02-18T09:18:09.835Z,21.42
2019-02-18T09:19:10.964Z,21.41
2019-02-18T09:20:12.280Z,21.40
2019-02-18T09:21:13.400Z,21.40
2019-02-18T09:22:28.044Z,21.38
2019-02-18T09:23:42.896Z,21.37
2019-02-18T09:24:48.689Z,21.35
2019-02-18T09:25:51.105Z,21.33
2019-02-18T09:26:52.216Z,21.30
2019-02-18T09:27:53.430Z,21.30
2019-02-18T09:28:54.545Z,21.29
2019-02-18T09:29:55.804Z,21.27
2019-02-18T09:30:57.018Z,21.26
2019-02-18T09:31:58.134Z,21.25
2019-02-18T09:32:59.259Z,21.25
2019-02-18T09:34:00.552Z,21.25
2019-02-18T09:35:02.351Z,21.25
2019-02-18T09:36:03.623Z,21.24
2019-02-18T09:37:04.736Z,21.24
2019-02-18T09:38:05.857Z,21.24
2019-02-18T09:39:15.602Z,21.23
2019-02-18T09:40:17.908Z,21.23
2019-02-18T09:41:19.019Z,21.24
2019-02-18T09:42:21.127Z,21.24
2019-02-18T09:43:22.237Z,21.24
2019-02-18T09:44:23.343Z,21.23
2019-02-18T09:45:24.596Z,21.25
2019-02-18T09:46:25.818Z,21.25
2019-02-18T09:47:27.044Z,21.24
2019-02-18T09:48:28.149Z,21.24
2019-02-18T09:49:29.259Z,21.25
2019-02-18T09:50:30.384Z,21.25
2019-02-18T09:51:31.499Z,21.26
2019-02-18T09:52:32.613Z,21.27
2019-02-18T09:53:33.729Z,21.26
2019-02-18T09:54:34.843Z,21.27
2019-02-18T09:55:35.993Z,21.28
2019-02-18T09:56:37.211Z,21.28
2019-02-18T09:57:38.329Z,21.29
2019-02-18T09:58:39.442Z,21.29
2019-02-18T09:59:40.665Z,21.31
2019-02-18T10:00:41.900Z,21.31
2019-02-18T10:01:43.354Z,21.32
2019-02-18T10:02:44.537Z,21.34
2019-02-18T10:03:45.654Z,21.35
2019-02-18T10:04:46.775Z,21.36
2019-02-18T10:05:47.897Z,21.37
2019-02-18T10:06:49.107Z,21.38
2019-02-18T10:07:50.221Z,21.39
2019-02-18T10:08:51.334Z,21.39
2019-02-18T10:09:52.552Z,21.41
2019-02-18T10:10:56.118Z,21.40
2019-02-18T10:11:56.705Z,21.41
2019-02-18T10:12:59.572Z,21.41
2019-02-18T10:14:00.940Z,21.41
2019-02-18T10:15:03.053Z,21.41
2019-02-18T10:16:04.277Z,21.41
2019-02-18T10:17:05.492Z,21.41
2019-02-18T10:18:06.717Z,21.41
2019-02-18T10:19:07.834Z,21.40
2019-02-18T10:20:10.154Z,21.40
2019-02-18T10:21:11.395Z,21.39
2019-02-18T10:22:12.513Z,21.39
2019-02-18T10:23:13.733Z,21.38
2019-02-18T10:24:14.846Z,21.38
2019-02-18T10:25:15.959Z,21.37
2019-02-18T10:26:17.089Z,21.36
2019-02-18T10:27:18.290Z,21.35
2019-02-18T10:28:19.427Z,21.35
2019-02-18T10:29:20.541Z,21.34
2019-02-18T10:30:21.740Z,21.34
2019-02-18T10:31:22.966Z,21.35
2019-02-18T10:32:24.081Z,21.34
2019-02-18T10:33:25.195Z,21.34
2019-02-18T10:34:26.311Z,21.35
2019-02-18T10:35:27.462Z,21.35
2019-02-18T10:36:28.582Z,21.35
2019-02-18T10:37:29.809Z,21.35
2019-02-18T10:38:30.918Z,21.36
2019-02-18T10:39:32.037Z,21.36
2019-02-18T10:40:33.158Z,21.36
2019-02-18T10:41:34.493Z,21.36
2019-02-18T10:42:35.621Z,21.37
2019-02-18T10:43:36.746Z,21.37
2019-02-18T10:44:40.246Z,21.37
2019-02-18T10:45:41.459Z,21.39
2019-02-18T10:46:42.629Z,21.38
2019-02-18T10:47:43.747Z,21.38
2019-02-18T10:48:44.857Z,21.38
2019-02-18T10:49:45.973Z,21.39
2019-02-18T10:50:47.098Z,21.40
2019-02-18T10:51:48.248Z,21.40
2019-02-18T10:52:49.364Z,21.40
2019-02-18T10:53:50.890Z,21.41
2019-02-18T10:54:51.998Z,21.42
2019-02-18T10:55:53.114Z,21.42
2019-02-18T10:56:54.277Z,21.43
2019-02-18T10:57:55.389Z,21.43
2019-02-18T10:58:56.501Z,21.44
2019-02-18T10:59:59.303Z,21.44
2019-02-18T11:01:00.670Z,21.44
2019-02-18T11:02:01.781Z,21.43
2019-02-18T11:03:03.299Z,21.44
2019-02-18T11:04:04.523Z,21.42
2019-02-18T11:05:06.434Z,21.43
2019-02-18T11:06:09.365Z,21.42
2019-02-18T11:07:10.720Z,21.42
2019-02-18T11:08:11.836Z,21.42
2019-02-18T11:09:12.961Z,21.42
2019-02-18T11:10:15.167Z,21.40
2019-02-18T11:11:17.251Z,21.40
2019-02-18T11:12:18.725Z,21.40
2019-02-18T11:13:19.845Z,21.41
2019-02-18T11:14:21.090Z,21.39
2019-02-18T11:15:22.185Z,21.38
2019-02-18T11:16:23.410Z,21.38
2019-02-18T11:17:24.963Z,21.37
2019-02-18T11:18:26.184Z,21.37
2019-02-18T11:19:27.301Z,21.36
2019-02-18T11:20:28.422Z,21.35
2019-02-18T11:21:29.637Z,21.34
2019-02-18T11:22:30.768Z,21.32
2019-02-18T11:23:31.886Z,21.32
2019-02-18T11:24:33.002Z,21.29
2019-02-18T11:25:34.223Z,21.29
2019-02-18T11:26:35.850Z,21.27
2019-02-18T11:27:36.986Z,21.27
2019-02-18T11:28:38.084Z,21.27
2019-02-18T11:29:39.202Z,21.26
2019-02-18T11:30:40.413Z,21.25
2019-02-18T11:31:41.531Z,21.25
2019-02-18T11:32:42.986Z,21.24
2019-02-18T11:33:44.115Z,21.25
2019-02-18T11:34:45.220Z,21.24
2019-02-18T11:35:46.453Z,21.24
2019-02-18T11:36:47.587Z,21.26
2019-02-18T11:37:48.870Z,21.25
2019-02-18T11:38:49.984Z,21.26
2019-02-18T11:39:51.101Z,21.26
2019-02-18T11:40:52.213Z,21.27
2019-02-18T11:41:53.329Z,21.26
2019-02-18T11:42:54.461Z,21.28
2019-02-18T11:43:55.681Z,21.27
2019-02-18T11:44:56.796Z,21.27
2019-02-18T11:45:58.208Z,21.28
2019-02-18T11:46:59.885Z,21.29
2019-02-18T11:48:01.008Z,21.30
2019-02-18T11:49:02.225Z,21.30
2019-02-18T11:50:06.132Z,21.31
2019-02-18T11:51:07.354Z,21.32
2019-02-18T11:52:08.666Z,21.32
2019-02-18T11:53:09.797Z,21.34
2019-02-18T11:54:10.921Z,21.33
2019-02-18T11:55:12.878Z,21.35
2019-02-18T11:56:14.444Z,21.35
2019-02-18T11:57:15.558Z,21.35
2019-02-18T11:58:16.715Z,21.36
2019-02-18T11:59:24.224Z,21.36
2019-02-18T12:00:20.854Z,21.36
2019-02-18T12:01:21.968Z,21.36
2019-02-18T12:02:23.081Z,21.37
2019-02-18T12:03:24.319Z,21.37
2019-02-18T12:04:25.574Z,21.36
2019-02-18T12:05:27.156Z,21.35
2019-02-18T12:06:28.377Z,21.34
2019-02-18T12:07:29.492Z,21.34
2019-02-18T12:08:30.644Z,21.34
2019-02-18T12:09:31.864Z,21.34
2019-02-18T12:10:33.081Z,21.33
2019-02-18T12:11:37.969Z,21.32
2019-02-18T12:12:37.325Z,21.31
2019-02-18T12:13:38.458Z,21.30
2019-02-18T12:14:39.974Z,21.29
2019-02-18T12:15:41.124Z,21.29
2019-02-18T12:16:42.242Z,21.27
2019-02-18T12:17:43.466Z,21.27
2019-02-18T12:18:44.601Z,21.26
2019-02-18T12:19:45.717Z,21.26
2019-02-18T12:20:46.932Z,21.25
2019-02-18T12:21:48.151Z,21.25
2019-02-18T12:22:49.468Z,21.24
2019-02-18T12:23:50.634Z,21.23
2019-02-18T12:24:51.750Z,21.23
2019-02-18T12:25:52.869Z,21.22
2019-02-18T12:26:53.989Z,21.23
2019-02-18T12:27:55.206Z,21.23
2019-02-18T12:28:56.337Z,21.21
2019-02-18T12:29:57.458Z,21.22
2019-02-18T12:30:58.580Z,21.21
2019-02-18T12:32:00.090Z,21.21
2019-02-18T12:33:01.212Z,21.23
2019-02-18T12:34:02.329Z,21.22
2019-02-18T12:35:05.221Z,21.24
2019-02-18T12:36:06.474Z,21.23
2019-02-18T12:37:07.618Z,21.24
2019-02-18T12:38:08.940Z,21.24
2019-02-18T12:39:11.987Z,21.25
2019-02-18T12:40:13.105Z,21.25
2019-02-18T12:41:14.225Z,21.25
2019-02-18T12:42:15.852Z,21.27
2019-02-18T12:43:16.968Z,21.26
2019-02-18T12:44:18.197Z,21.27
2019-02-18T12:45:19.320Z,21.27
2019-02-18T12:46:20.439Z,21.28
2019-02-18T12:47:21.556Z,21.29
2019-02-18T12:48:22.778Z,21.29
2019-02-18T12:49:24.060Z,21.30
2019-02-18T12:50:25.195Z,21.32
2019-02-18T12:51:26.808Z,21.32
2019-02-18T12:52:27.922Z,21.31
2019-02-18T12:53:29.032Z,21.33
2019-02-18T12:54:30.170Z,21.33
2019-02-18T12:55:31.585Z,21.34
2019-02-18T12:56:33.003Z,21.35
2019-02-18T12:57:34.117Z,21.35
2019-02-18T12:58:35.236Z,21.36
2019-02-18T12:59:36.816Z,21.35
2019-02-18T13:00:38.066Z,21.36
2019-02-18T13:01:39.179Z,21.36
2019-02-18T13:02:44.100Z,21.36
2019-02-18T13:03:44.027Z,21.36
2019-02-18T13:04:45.152Z,21.35
2019-02-18T13:05:46.444Z,21.34
2019-02-18T13:06:47.561Z,21.34
2019-02-18T13:07:48.981Z,21.33
2019-02-18T13:08:50.101Z,21.33
2019-02-18T13:09:51.229Z,21.32
2019-02-18T13:10:52.452Z,21.31
2019-02-18T13:11:58.970Z,21.30